Terminal Aerodrome Forecast
Issued by NWS

Home | Current Version | Previous Version | Text Only | Print | Product List | Glossary On
Versions: 1 2 3 4 5 6 7 8 9 10 11 12 13
348
FTPA31 PHFO 232339
TAFHJR
TAF
PHJR 232339Z 2400/2424 05008G15KT P6SM SCT035 SCT050
     FM240500 VRB05KT P6SM SCT050
     FM241000 05008KT P6SM VCSH SCT025 BKN035 OVC050
     FM242000 16010KT P6SM FEW025 SCT050=

USA.gov is the U.S. government's official web portal to all federal, state and local government web resources and services.